createdAt,value
2023-05-16T00:01:02.526Z,15.22
2023-05-16T00:03:30.899Z,15.30
2023-05-16T00:05:58.128Z,15.36
2023-05-16T00:08:24.827Z,15.09
2023-05-16T00:10:51.375Z,15.16
2023-05-16T00:13:22.311Z,15.18
2023-05-16T00:15:48.894Z,14.90
2023-05-16T00:18:16.726Z,14.45
2023-05-16T00:20:43.372Z,15.01
2023-05-16T00:23:09.967Z,14.90
2023-05-16T00:25:37.501Z,14.70
2023-05-16T00:28:04.145Z,14.54
2023-05-16T00:30:30.765Z,14.65
2023-05-16T00:32:57.398Z,14.73
2023-05-16T00:35:24.358Z,14.29
2023-05-16T00:37:51.449Z,14.95
2023-05-16T00:40:18.241Z,14.98
2023-05-16T00:42:44.846Z,15.06
2023-05-16T00:45:12.134Z,14.70
2023-05-16T00:47:38.851Z,15.10
2023-05-16T00:50:06.032Z,14.88
2023-05-16T00:52:33.848Z,15.18
2023-05-16T00:55:01.221Z,15.23
2023-05-16T00:57:27.981Z,15.20
2023-05-16T00:59:54.865Z,15.27
2023-05-16T01:02:21.640Z,15.21
2023-05-16T01:04:48.949Z,15.18
2023-05-16T01:07:15.624Z,14.98
2023-05-16T01:09:42.364Z,14.97
2023-05-16T01:12:16.293Z,15.10
2023-05-16T01:15:10.938Z,15.04
2023-05-16T01:17:59.256Z,15.07
2023-05-16T01:20:55.769Z,15.02
2023-05-16T01:23:34.631Z,15.04
2023-05-16T01:26:16.864Z,15.05
2023-05-16T01:28:46.510Z,15.01
2023-05-16T01:31:13.211Z,15.07
2023-05-16T01:33:39.914Z,14.92
2023-05-16T01:36:26.569Z,15.12
2023-05-16T01:39:11.671Z,15.07
2023-05-16T01:41:41.524Z,15.08
2023-05-16T01:44:17.234Z,15.10
2023-05-16T01:46:47.799Z,15.06
2023-05-16T01:49:25.576Z,15.10
2023-05-16T01:51:56.318Z,15.13
2023-05-16T01:54:26.522Z,15.08
2023-05-16T01:56:56.042Z,15.06
2023-05-16T01:59:24.350Z,14.93
2023-05-16T02:01:54.274Z,14.89
2023-05-16T02:04:21.289Z,14.91
2023-05-16T02:06:48.258Z,14.83
2023-05-16T02:09:14.829Z,14.82
2023-05-16T02:11:41.443Z,14.89
2023-05-16T02:14:08.093Z,14.56
2023-05-16T02:16:34.699Z,14.75
2023-05-16T02:19:01.689Z,14.78
2023-05-16T02:21:28.260Z,14.89
2023-05-16T02:23:54.831Z,14.94
2023-05-16T02:26:21.960Z,14.82
2023-05-16T02:28:49.942Z,14.36
2023-05-16T02:31:45.915Z,14.84
2023-05-16T02:34:12.521Z,14.37
2023-05-16T02:36:39.073Z,14.69
2023-05-16T02:39:05.918Z,14.59
2023-05-16T02:41:33.228Z,14.54
2023-05-16T02:43:59.846Z,14.44
2023-05-16T02:46:30.903Z,14.37
2023-05-16T02:48:57.748Z,14.12
2023-05-16T02:51:26.624Z,14.32
2023-05-16T02:53:54.024Z,14.35
2023-05-16T02:56:21.781Z,14.41
2023-05-16T02:58:50.140Z,14.05
2023-05-16T03:01:17.536Z,14.30
2023-05-16T03:03:44.624Z,14.30
2023-05-16T03:06:11.436Z,14.08
2023-05-16T03:08:38.059Z,14.31
2023-05-16T03:11:04.709Z,14.44
2023-05-16T03:13:31.336Z,14.16
2023-05-16T03:15:58.141Z,13.98
2023-05-16T03:18:24.747Z,14.53
2023-05-16T03:20:53.061Z,14.54
2023-05-16T03:23:22.803Z,14.57
2023-05-16T03:25:49.679Z,14.49
2023-05-16T03:28:18.072Z,14.35
2023-05-16T03:30:44.712Z,14.50
2023-05-16T03:33:11.480Z,14.50
2023-05-16T03:35:38.535Z,14.43
2023-05-16T03:38:05.167Z,14.44
2023-05-16T03:40:31.791Z,14.56
2023-05-16T03:42:58.430Z,14.68
2023-05-16T03:45:25.238Z,14.74
2023-05-16T03:47:52.071Z,14.95
2023-05-16T03:50:18.761Z,15.05
2023-05-16T03:52:45.386Z,15.14
2023-05-16T03:55:14.494Z,15.14
2023-05-16T03:57:42.302Z,15.18
2023-05-16T04:00:12.401Z,15.10
2023-05-16T04:02:42.996Z,15.28
2023-05-16T04:05:10.844Z,15.30
2023-05-16T04:07:38.225Z,15.27
2023-05-16T04:10:06.438Z,15.35
2023-05-16T04:12:33.104Z,15.34
2023-05-16T04:14:59.690Z,15.51
2023-05-16T04:17:26.357Z,15.62
2023-05-16T04:19:53.143Z,15.72
2023-05-16T04:22:22.066Z,15.49
2023-05-16T04:24:49.157Z,15.91
2023-05-16T04:27:15.931Z,15.93
2023-05-16T04:29:42.750Z,16.03
2023-05-16T04:32:09.695Z,16.17
2023-05-16T04:34:39.771Z,16.28
2023-05-16T04:37:08.475Z,16.38
2023-05-16T04:39:36.597Z,16.51
2023-05-16T04:42:04.446Z,16.84
2023-05-16T04:44:31.772Z,17.00
2023-05-16T04:46:58.577Z,17.15
2023-05-16T04:49:25.381Z,17.21
2023-05-16T04:51:52.310Z,17.20
2023-05-16T04:54:18.943Z,17.36
2023-05-16T04:56:45.538Z,17.37
2023-05-16T04:59:12.198Z,17.35
2023-05-16T05:01:39.791Z,17.35
2023-05-16T05:04:06.626Z,17.34
2023-05-16T05:06:33.236Z,17.30
2023-05-16T05:08:59.873Z,17.28
2023-05-16T05:11:27.456Z,17.44
2023-05-16T05:13:54.107Z,17.18
2023-05-16T05:16:20.807Z,17.22
2023-05-16T05:18:47.530Z,17.32
2023-05-16T05:21:14.363Z,17.59
2023-05-16T05:23:41.352Z,17.70
2023-05-16T05:26:08.281Z,17.92
2023-05-16T05:28:34.966Z,18.29
2023-05-16T05:31:01.655Z,18.38
2023-05-16T05:33:31.027Z,18.37
2023-05-16T05:35:57.797Z,18.83
2023-05-16T05:38:24.482Z,18.67
2023-05-16T05:40:51.202Z,19.51
2023-05-16T05:43:17.857Z,19.80
2023-05-16T05:45:44.913Z,19.47
2023-05-16T05:48:12.814Z,19.83
2023-05-16T05:50:39.751Z,19.79
2023-05-16T05:53:06.401Z,19.79
2023-05-16T05:55:33.099Z,18.36
2023-05-16T05:57:59.739Z,17.61
2023-05-16T06:00:26.522Z,18.31
2023-05-16T06:02:53.492Z,18.88
2023-05-16T06:05:20.242Z,19.01
2023-05-16T06:07:46.830Z,18.19
2023-05-16T06:10:13.440Z,16.03
2023-05-16T06:12:40.036Z,17.31
2023-05-16T06:15:07.509Z,16.80
2023-05-16T06:17:34.192Z,18.95
2023-05-16T06:20:00.967Z,18.68
2023-05-16T06:22:27.584Z,17.99
2023-05-16T06:24:54.136Z,18.70
2023-05-16T06:27:20.742Z,18.99
2023-05-16T06:29:47.283Z,19.81
2023-05-16T06:32:13.830Z,19.60
2023-05-16T06:34:40.514Z,19.02
2023-05-16T06:37:07.111Z,19.08
2023-05-16T06:39:33.808Z,19.98
2023-05-16T06:42:00.929Z,19.94
2023-05-16T06:44:27.803Z,19.96
2023-05-16T06:46:54.595Z,20.49
2023-05-16T06:49:21.482Z,20.88
2023-05-16T06:51:48.128Z,20.80
2023-05-16T06:54:15.155Z,19.99
2023-05-16T06:56:41.936Z,20.73
2023-05-16T06:59:08.591Z,18.27
2023-05-16T07:01:35.580Z,19.20
2023-05-16T07:04:02.674Z,19.65
2023-05-16T07:06:29.594Z,18.92
2023-05-16T07:08:56.173Z,20.47
2023-05-16T07:11:22.833Z,20.59
2023-05-16T07:13:49.696Z,21.42
2023-05-16T07:16:16.392Z,21.51
2023-05-16T07:18:43.580Z,21.56
2023-05-16T07:21:10.195Z,21.88
2023-05-16T07:23:36.841Z,21.85
2023-05-16T07:26:03.820Z,21.02
2023-05-16T07:28:30.641Z,20.75
2023-05-16T07:30:58.882Z,19.63
2023-05-16T07:33:25.802Z,19.82
2023-05-16T07:36:00.883Z,20.22
2023-05-16T07:38:34.951Z,20.85
2023-05-16T07:41:01.656Z,21.26
2023-05-16T07:43:28.452Z,20.92
2023-05-16T07:45:56.432Z,21.02
2023-05-16T07:48:23.193Z,19.83
2023-05-16T07:50:49.830Z,20.35
2023-05-16T07:53:16.593Z,20.77
2023-05-16T07:55:43.278Z,21.23
2023-05-16T07:58:10.000Z,21.09
2023-05-16T08:00:36.752Z,21.40
2023-05-16T08:03:03.786Z,21.77
2023-05-16T08:05:30.962Z,22.03
2023-05-16T08:07:58.603Z,21.44
2023-05-16T08:10:25.819Z,21.70
2023-05-16T08:12:53.881Z,22.41
2023-05-16T08:15:21.680Z,22.53
2023-05-16T08:17:48.493Z,22.94
2023-05-16T08:20:15.770Z,22.56
2023-05-16T08:22:42.407Z,22.64
2023-05-16T08:25:09.284Z,21.89
2023-05-16T08:27:36.148Z,21.76
2023-05-16T08:30:03.153Z,21.69
2023-05-16T08:32:29.798Z,22.70
2023-05-16T08:34:56.522Z,23.18
2023-05-16T08:37:23.172Z,22.68
2023-05-16T08:39:49.945Z,23.13
2023-05-16T08:42:16.753Z,23.56
2023-05-16T08:44:43.486Z,24.54
2023-05-16T08:47:19.258Z,24.11
2023-05-16T08:49:48.533Z,23.57
2023-05-16T08:52:19.618Z,23.37
2023-05-16T08:54:50.393Z,24.29
2023-05-16T08:57:22.246Z,24.64
2023-05-16T08:59:49.633Z,23.72
2023-05-16T09:02:16.319Z,23.36
2023-05-16T09:04:44.640Z,24.48
2023-05-16T09:07:11.438Z,24.12
2023-05-16T09:09:38.041Z,23.57
2023-05-16T09:12:04.907Z,24.59
2023-05-16T09:14:31.549Z,24.02
2023-05-16T09:17:12.152Z,24.13
2023-05-16T09:19:41.014Z,24.86
2023-05-16T09:22:15.164Z,23.98
2023-05-16T09:24:46.104Z,24.02
2023-05-16T09:27:14.669Z,24.15
2023-05-16T09:29:42.724Z,23.98
2023-05-16T09:32:16.711Z,23.95
2023-05-16T09:34:49.261Z,23.83
2023-05-16T09:37:16.406Z,24.26
2023-05-16T09:39:48.008Z,24.62
2023-05-16T09:42:16.488Z,23.55
2023-05-16T09:44:54.959Z,24.47
2023-05-16T09:47:22.298Z,24.31
2023-05-16T09:49:55.182Z,24.14
2023-05-16T09:52:21.991Z,25.12
2023-05-16T09:54:50.035Z,24.84
2023-05-16T09:57:23.676Z,23.68
2023-05-16T09:59:50.570Z,23.73
2023-05-16T10:02:17.678Z,23.83
2023-05-16T10:04:44.360Z,24.30
2023-05-16T10:07:11.353Z,24.41
2023-05-16T10:09:40.740Z,24.08
2023-05-16T10:12:08.783Z,24.55
2023-05-16T10:14:37.715Z,24.09
2023-05-16T10:17:07.139Z,23.78
2023-05-16T10:19:37.622Z,24.59
2023-05-16T10:22:06.891Z,24.06
2023-05-16T10:24:48.185Z,24.48
2023-05-16T10:27:17.333Z,24.43
2023-05-16T10:29:54.358Z,23.69
2023-05-16T10:32:24.447Z,23.94
2023-05-16T10:34:52.372Z,24.19
2023-05-16T10:37:19.157Z,24.13
2023-05-16T10:39:46.556Z,23.12
2023-05-16T10:42:18.268Z,23.71
2023-05-16T10:44:54.682Z,25.04
2023-05-16T10:47:25.163Z,23.78
2023-05-16T10:49:51.814Z,25.78
2023-05-16T10:52:18.437Z,25.87
2023-05-16T10:54:52.121Z,25.36
2023-05-16T10:57:23.790Z,24.56
2023-05-16T10:59:52.198Z,23.44
2023-05-16T11:02:32.195Z,24.29
2023-05-16T11:05:00.495Z,24.37
2023-05-16T11:07:32.711Z,24.92
2023-05-16T11:10:08.311Z,25.01
2023-05-16T11:12:45.072Z,25.06
2023-05-16T11:15:25.539Z,25.80
2023-05-16T11:18:06.364Z,26.10
2023-05-16T11:20:35.029Z,26.40
2023-05-16T11:23:17.071Z,26.69
2023-05-16T11:25:46.477Z,25.17
2023-05-16T11:28:15.462Z,26.73
2023-05-16T11:30:44.765Z,26.32
2023-05-16T11:33:13.064Z,25.36
2023-05-16T11:35:39.770Z,25.45
2023-05-16T11:38:06.434Z,25.45
2023-05-16T11:40:33.136Z,24.80
2023-05-16T11:43:05.755Z,24.35
2023-05-16T11:45:34.460Z,24.67
2023-05-16T11:48:04.633Z,25.05
2023-05-16T11:50:31.688Z,25.36
2023-05-16T11:52:58.425Z,25.72
2023-05-16T12:26:06.987Z,25.37
2023-05-16T12:28:34.938Z,25.63
2023-05-16T12:31:01.684Z,25.71
2023-05-16T12:33:28.417Z,25.83
2023-05-16T12:35:55.441Z,25.76
2023-05-16T12:38:22.367Z,25.06
2023-05-16T12:40:49.052Z,24.98
2023-05-16T12:43:23.210Z,25.51
2023-05-16T12:45:55.202Z,25.20
2023-05-16T12:48:22.961Z,25.12
2023-05-16T12:50:49.911Z,24.90
2023-05-16T12:53:18.415Z,24.81
2023-05-16T12:55:45.356Z,24.29
2023-05-16T12:58:12.951Z,25.30
2023-05-16T13:00:39.773Z,25.23
2023-05-16T13:03:07.808Z,25.30
2023-05-16T13:05:36.338Z,24.87
2023-05-16T13:08:03.485Z,24.89
2023-05-16T13:10:30.333Z,25.70
2023-05-16T13:13:01.550Z,25.49
2023-05-16T13:15:28.790Z,25.54
2023-05-16T13:17:55.872Z,25.50
2023-05-16T13:20:22.551Z,25.39
2023-05-16T13:22:49.337Z,25.27
2023-05-16T13:25:16.227Z,25.11
2023-05-16T13:27:44.954Z,24.67
2023-05-16T13:30:11.937Z,25.22
2023-05-16T13:32:38.863Z,25.42
2023-05-16T13:35:06.179Z,25.84
2023-05-16T13:37:33.087Z,26.20
2023-05-16T13:40:00.071Z,26.06
2023-05-16T13:42:26.860Z,25.30
2023-05-16T13:44:53.546Z,26.42
2023-05-16T13:47:20.159Z,24.64
2023-05-16T13:49:47.671Z,26.06
2023-05-16T13:52:14.910Z,25.40
2023-05-16T13:54:41.554Z,25.81
2023-05-16T13:57:08.385Z,22.92
2023-05-16T14:02:06.201Z,25.59
2023-05-16T14:04:32.925Z,25.65
2023-05-16T14:06:59.566Z,25.25
2023-05-16T14:09:26.194Z,25.63
2023-05-16T14:11:52.848Z,25.03
2023-05-16T14:14:19.506Z,25.41
2023-05-16T14:16:46.522Z,25.39
2023-05-16T14:19:14.892Z,25.46
2023-05-16T14:21:43.301Z,25.10
2023-05-16T14:24:09.953Z,25.08
2023-05-16T14:26:36.628Z,25.71
2023-05-16T14:29:05.885Z,25.93
2023-05-16T14:31:33.605Z,25.79
2023-05-16T14:34:00.273Z,25.88
2023-05-16T14:36:26.938Z,25.44
2023-05-16T14:38:53.599Z,25.72
2023-05-16T14:41:20.212Z,25.89
2023-05-16T14:43:46.918Z,25.85
2023-05-16T14:46:14.000Z,25.75
2023-05-16T14:48:41.289Z,25.56
2023-05-16T14:51:07.981Z,25.40
2023-05-16T14:53:34.677Z,25.10
2023-05-16T14:56:02.882Z,24.89
2023-05-16T14:58:30.482Z,24.82
2023-05-16T15:00:57.173Z,24.43
2023-05-16T15:03:23.917Z,23.82
2023-05-16T15:05:50.538Z,24.19
2023-05-16T15:08:17.227Z,23.98
2023-05-16T15:10:43.934Z,23.24
2023-05-16T15:13:10.936Z,23.92
2023-05-16T15:15:38.903Z,23.93
2023-05-16T15:18:08.835Z,23.13
2023-05-16T15:20:35.489Z,23.67
2023-05-16T15:23:02.107Z,23.52
2023-05-16T15:25:29.069Z,23.30
2023-05-16T15:27:56.381Z,23.51
2023-05-16T15:30:23.147Z,23.56
2023-05-16T15:32:49.832Z,23.61
2023-05-16T15:35:16.494Z,23.56
2023-05-16T15:37:43.816Z,23.48
2023-05-16T15:40:11.214Z,23.55
2023-05-16T15:42:38.275Z,23.48
2023-05-16T15:45:05.360Z,23.61
2023-05-16T15:47:32.212Z,23.31
2023-05-16T15:49:58.845Z,23.82
2023-05-16T15:52:25.532Z,23.83
2023-05-16T15:54:52.170Z,23.80
2023-05-16T15:57:19.250Z,23.87
2023-05-16T15:59:46.436Z,23.96
2023-05-16T16:02:13.094Z,23.87
2023-05-16T16:04:39.836Z,23.74
2023-05-16T16:07:06.512Z,22.93
2023-05-16T16:09:33.136Z,23.89
2023-05-16T16:11:59.769Z,23.87
2023-05-16T16:14:26.413Z,23.83
2023-05-16T16:16:53.037Z,23.86
2023-05-16T16:19:19.734Z,23.82
2023-05-16T16:21:48.964Z,23.83
2023-05-16T16:24:15.919Z,23.57
2023-05-16T16:26:43.395Z,22.48
2023-05-16T16:29:10.084Z,22.48
2023-05-16T16:31:36.832Z,22.40
2023-05-16T16:34:03.598Z,22.45
2023-05-16T16:36:31.962Z,22.57
2023-05-16T16:38:59.502Z,22.55
2023-05-16T16:41:26.287Z,22.56
2023-05-16T16:43:53.102Z,22.59
2023-05-16T16:46:19.859Z,22.49
2023-05-16T16:48:46.517Z,22.39
2023-05-16T16:51:13.160Z,21.95
2023-05-16T16:53:41.074Z,22.31
2023-05-16T16:56:07.725Z,22.19
2023-05-16T16:58:34.449Z,22.20
2023-05-16T17:01:01.269Z,22.03
2023-05-16T17:03:27.960Z,21.99
2023-05-16T17:05:54.652Z,21.81
2023-05-16T17:08:21.671Z,21.92
2023-05-16T17:10:48.328Z,21.83
2023-05-16T17:13:17.255Z,22.00
2023-05-16T17:15:44.236Z,21.89
2023-05-16T17:18:13.141Z,22.00
2023-05-16T17:20:39.955Z,21.79
2023-05-16T17:23:06.662Z,20.82
2023-05-16T17:25:33.274Z,21.47
2023-05-16T17:27:59.995Z,21.49
2023-05-16T17:30:26.729Z,21.44
2023-05-16T17:32:54.165Z,21.56
2023-05-16T17:35:20.929Z,21.59
2023-05-16T17:37:47.910Z,21.54
2023-05-16T17:40:17.004Z,21.55
2023-05-16T17:42:45.033Z,21.62
2023-05-16T17:45:14.860Z,21.46
2023-05-16T17:47:42.129Z,21.35
2023-05-16T17:50:10.407Z,21.19
2023-05-16T17:52:38.613Z,21.15
2023-05-16T17:55:07.230Z,21.45
2023-05-16T17:57:34.322Z,21.44
2023-05-16T18:00:01.751Z,21.39
2023-05-16T18:02:28.739Z,21.37
2023-05-16T18:04:55.849Z,21.42
2023-05-16T18:07:22.703Z,21.28
2023-05-16T18:09:49.461Z,21.40
2023-05-16T18:12:16.222Z,21.38
2023-05-16T18:14:45.282Z,21.31
2023-05-16T18:17:13.438Z,21.00
2023-05-16T18:19:40.316Z,21.13
2023-05-16T18:22:08.908Z,21.13
2023-05-16T18:24:35.963Z,20.62
2023-05-16T18:27:03.280Z,20.64
2023-05-16T18:29:30.418Z,20.61
2023-05-16T18:31:57.822Z,20.66
2023-05-16T18:34:24.651Z,20.67
2023-05-16T18:36:51.308Z,20.63
2023-05-16T18:39:19.080Z,20.75
2023-05-16T18:41:48.263Z,20.82
2023-05-16T18:44:18.470Z,20.83
2023-05-16T18:46:46.588Z,20.36
2023-05-16T18:49:14.230Z,20.23
2023-05-16T18:51:41.109Z,20.26
2023-05-16T18:54:08.075Z,20.41
2023-05-16T18:56:35.206Z,20.14
2023-05-16T18:59:02.082Z,20.30
2023-05-16T19:01:28.932Z,20.28
2023-05-16T19:03:56.251Z,20.45
2023-05-16T19:06:23.441Z,20.40
2023-05-16T19:08:50.534Z,20.16
2023-05-16T19:11:17.945Z,20.39
2023-05-16T19:13:45.974Z,20.30
2023-05-16T19:16:13.170Z,20.32
2023-05-16T19:18:40.410Z,20.23
2023-05-16T19:21:13.795Z,20.13
2023-05-16T19:23:40.930Z,20.16
2023-05-16T19:26:08.002Z,20.13
2023-05-16T19:28:35.028Z,20.14
2023-05-16T19:31:01.844Z,20.15
2023-05-16T19:33:28.670Z,20.18
2023-05-16T19:35:58.750Z,19.93
2023-05-16T19:38:26.802Z,19.48
2023-05-16T19:40:53.932Z,19.47
2023-05-16T19:43:20.937Z,19.26
2023-05-16T19:45:47.970Z,19.19
2023-05-16T19:48:14.992Z,19.51
2023-05-16T19:50:42.593Z,19.67
2023-05-16T19:53:09.590Z,19.61
2023-05-16T19:55:38.241Z,19.53
2023-05-16T19:58:05.295Z,19.72
2023-05-16T20:00:32.469Z,19.76
2023-05-16T20:02:59.603Z,19.80
2023-05-16T20:05:26.648Z,19.21
2023-05-16T20:07:54.658Z,19.84
2023-05-16T20:10:22.222Z,19.86
2023-05-16T20:12:49.195Z,19.78
2023-05-16T20:15:16.475Z,19.83
2023-05-16T20:17:43.199Z,19.93
2023-05-16T20:20:10.418Z,19.92
2023-05-16T20:22:41.480Z,19.44
2023-05-16T20:25:09.965Z,19.33
2023-05-16T20:27:36.925Z,18.57
2023-05-16T20:30:05.149Z,18.94
2023-05-16T20:32:31.964Z,18.65
2023-05-16T20:34:58.652Z,18.45
2023-05-16T20:37:28.236Z,18.38
2023-05-16T20:39:54.990Z,17.82
2023-05-16T20:42:22.107Z,17.58
2023-05-16T20:44:48.885Z,17.44
2023-05-16T20:47:17.141Z,16.56
2023-05-16T20:49:43.843Z,16.80
2023-05-16T20:52:11.194Z,16.35
2023-05-16T20:54:37.889Z,16.51
2023-05-16T20:57:04.997Z,16.27
2023-05-16T20:59:32.395Z,15.87
2023-05-16T21:01:59.107Z,15.11
2023-05-16T21:04:25.949Z,15.84
2023-05-16T21:06:52.582Z,15.40
2023-05-16T21:09:19.310Z,15.27
2023-05-16T21:11:45.947Z,15.16
2023-05-16T21:14:12.727Z,14.77
2023-05-16T21:16:39.293Z,15.45
2023-05-16T21:19:05.999Z,15.08
2023-05-16T21:21:32.934Z,15.65
2023-05-16T21:23:59.740Z,14.74
2023-05-16T21:26:26.412Z,14.93
2023-05-16T21:28:55.408Z,14.10
2023-05-16T21:31:22.977Z,14.02
2023-05-16T21:33:52.242Z,14.13
2023-05-16T21:36:20.181Z,13.94
2023-05-16T21:38:46.955Z,14.43
2023-05-16T21:41:14.584Z,14.65
2023-05-16T21:43:41.340Z,14.76
2023-05-16T21:46:07.988Z,14.44
2023-05-16T21:48:34.802Z,14.20
2023-05-16T21:51:01.785Z,13.96
2023-05-16T21:53:28.423Z,14.07
2023-05-16T21:55:55.086Z,14.36
2023-05-16T21:58:22.123Z,14.43
2023-05-16T22:00:49.591Z,14.34
2023-05-16T22:03:19.191Z,14.39
2023-05-16T22:05:48.641Z,14.17
2023-05-16T22:08:15.414Z,13.42
2023-05-16T22:10:42.396Z,13.92
2023-05-16T22:13:09.179Z,13.96
2023-05-16T22:15:35.852Z,13.56
2023-05-16T22:18:02.834Z,13.73
2023-05-16T22:20:29.841Z,13.75
2023-05-16T22:22:56.677Z,13.70
2023-05-16T22:25:23.624Z,13.29
2023-05-16T22:27:50.358Z,12.70
2023-05-16T22:30:17.047Z,12.16
2023-05-16T22:32:45.808Z,12.16
2023-05-16T22:35:14.071Z,12.42
2023-05-16T22:37:40.796Z,12.54
2023-05-16T22:40:08.350Z,12.75
2023-05-16T22:42:35.037Z,12.64
2023-05-16T22:45:01.708Z,13.08
2023-05-16T22:47:28.934Z,13.08
2023-05-16T22:49:55.679Z,12.71
2023-05-16T22:52:22.353Z,12.73
2023-05-16T22:54:49.024Z,12.64
2023-05-16T22:57:15.781Z,12.80
2023-05-16T22:59:42.918Z,12.42
2023-05-16T23:02:09.553Z,11.99
2023-05-16T23:04:36.245Z,12.05
2023-05-16T23:07:03.284Z,12.12
2023-05-16T23:09:29.856Z,12.66
2023-05-16T23:11:56.485Z,12.84
2023-05-16T23:14:23.089Z,12.90
2023-05-16T23:16:49.682Z,13.06
2023-05-16T23:19:16.404Z,13.06
2023-05-16T23:21:43.262Z,13.15
2023-05-16T23:24:10.028Z,13.19
2023-05-16T23:26:36.661Z,13.29
2023-05-16T23:29:03.485Z,13.49
2023-05-16T23:31:30.096Z,13.62
2023-05-16T23:33:56.760Z,13.04
2023-05-16T23:36:23.442Z,13.57
2023-05-16T23:38:50.062Z,13.49
2023-05-16T23:41:16.748Z,13.59
2023-05-16T23:43:43.359Z,13.62
2023-05-16T23:46:09.934Z,13.60
2023-05-16T23:48:36.689Z,13.55
2023-05-16T23:51:07.361Z,13.65
2023-05-16T23:53:34.981Z,13.61
2023-05-16T23:56:01.580Z,12.94
2023-05-16T23:58:28.302Z,13.47
